createdAt,value
2023-03-15T00:02:25.107Z,90.36
2023-03-15T00:04:54.919Z,89.89
2023-03-15T00:07:26.006Z,89.36
2023-03-15T00:09:56.131Z,91.15
2023-03-15T00:12:26.335Z,91.15
2023-03-15T00:14:56.157Z,90.47
2023-03-15T00:17:25.881Z,90.15
2023-03-15T00:19:55.720Z,91.28
2023-03-15T00:22:25.247Z,90.83
2023-03-15T00:24:54.997Z,89.92
2023-03-15T00:27:24.759Z,91.07
2023-03-15T00:29:55.291Z,90.72
2023-03-15T00:32:25.063Z,90.78
2023-03-15T00:34:55.156Z,90.58
2023-03-15T00:37:25.688Z,90.84
2023-03-15T00:39:55.922Z,90.68
2023-03-15T00:42:27.372Z,89.87
2023-03-15T00:44:57.446Z,89.90
2023-03-15T00:47:27.671Z,90.09
2023-03-15T00:49:57.477Z,90.18
2023-03-15T00:52:27.145Z,91.17
2023-03-15T00:54:57.283Z,91.44
2023-03-15T00:57:27.678Z,90.67
2023-03-15T00:59:57.790Z,90.48
2023-03-15T01:02:27.737Z,90.79
2023-03-15T01:04:57.620Z,90.56
2023-03-15T01:07:27.541Z,89.57
2023-03-15T01:09:57.448Z,89.37
2023-03-15T01:12:27.687Z,89.58
2023-03-15T01:14:57.783Z,89.34
2023-03-15T01:17:27.991Z,89.85
2023-03-15T01:19:58.594Z,89.64
2023-03-15T01:22:28.762Z,89.17
2023-03-15T01:24:58.552Z,89.52
2023-03-15T01:27:28.915Z,89.40
2023-03-15T01:29:59.395Z,89.70
2023-03-15T01:32:29.337Z,89.92
2023-03-15T01:34:59.278Z,89.90
2023-03-15T01:37:29.196Z,89.47
2023-03-15T01:39:59.209Z,90.52
2023-03-15T01:42:29.020Z,89.64
2023-03-15T01:45:00.717Z,90.58
2023-03-15T01:47:32.743Z,90.52
2023-03-15T01:50:09.798Z,90.54
2023-03-15T01:52:42.787Z,91.48
2023-03-15T01:55:17.015Z,90.45
2023-03-15T01:57:59.772Z,89.89
2023-03-15T02:00:31.579Z,90.27
2023-03-15T02:03:15.399Z,90.65
2023-03-15T02:05:49.578Z,90.53
2023-03-15T02:08:23.034Z,90.38
2023-03-15T02:10:55.526Z,90.04
2023-03-15T02:13:27.763Z,90.26
2023-03-15T02:15:58.549Z,90.60
2023-03-15T02:18:30.056Z,90.05
2023-03-15T02:21:23.674Z,89.60
2023-03-15T02:24:05.472Z,88.40
2023-03-15T02:26:40.982Z,87.45
2023-03-15T02:29:11.004Z,87.21
2023-03-15T02:31:41.281Z,86.77
2023-03-15T02:34:12.645Z,86.21
2023-03-15T02:36:43.732Z,86.21
2023-03-15T02:39:18.476Z,85.77
2023-03-15T02:41:54.124Z,86.59
2023-03-15T02:44:29.552Z,86.99
2023-03-15T02:47:02.470Z,86.52
2023-03-15T02:49:35.856Z,87.65
2023-03-15T02:52:06.496Z,88.11
2023-03-15T02:54:36.565Z,87.40
2023-03-15T02:57:06.504Z,85.91
2023-03-15T02:59:36.710Z,85.97
2023-03-15T03:02:06.897Z,86.50
2023-03-15T03:04:37.085Z,86.55
2023-03-15T03:07:07.482Z,86.57
2023-03-15T03:09:41.969Z,88.25
2023-03-15T03:12:13.497Z,87.98
2023-03-15T03:14:44.016Z,87.93
2023-03-15T03:17:15.571Z,87.09
2023-03-15T03:19:45.857Z,87.32
2023-03-15T03:22:18.822Z,86.93
2023-03-15T03:24:48.705Z,87.06
2023-03-15T03:27:19.368Z,87.33
2023-03-15T03:29:50.201Z,86.96
2023-03-15T03:32:19.733Z,88.05
2023-03-15T03:34:49.565Z,87.98
2023-03-15T03:37:22.072Z,87.78
2023-03-15T03:39:59.778Z,88.84
2023-03-15T03:42:29.417Z,88.74
2023-03-15T03:44:59.259Z,88.32
2023-03-15T03:47:30.770Z,88.82
2023-03-15T03:50:00.605Z,88.13
2023-03-15T03:52:30.812Z,87.96
2023-03-15T03:55:03.731Z,88.02
2023-03-15T03:57:33.855Z,87.91
2023-03-15T04:00:04.777Z,88.33
2023-03-15T04:02:36.891Z,87.87
2023-03-15T04:05:08.532Z,87.31
2023-03-15T04:07:39.591Z,88.01
2023-03-15T04:10:12.622Z,87.54
2023-03-15T04:12:46.253Z,87.54
2023-03-15T04:15:16.849Z,87.95
2023-03-15T04:17:47.118Z,87.11
2023-03-15T04:20:17.499Z,86.78
2023-03-15T04:22:49.678Z,88.37
2023-03-15T04:25:24.737Z,88.43
2023-03-15T04:28:02.738Z,88.79
2023-03-15T04:30:33.895Z,88.77
2023-03-15T04:33:08.322Z,88.10
2023-03-15T04:35:45.708Z,88.02
2023-03-15T04:38:34.472Z,87.92
2023-03-15T04:41:20.752Z,88.87
2023-03-15T04:43:54.769Z,90.14
2023-03-15T04:46:44.044Z,89.00
2023-03-15T04:49:24.956Z,89.78
2023-03-15T04:51:56.426Z,89.93
2023-03-15T04:54:31.099Z,89.59
2023-03-15T04:57:18.771Z,89.46
2023-03-15T04:59:50.843Z,89.46
2023-03-15T05:02:28.391Z,89.29
2023-03-15T05:05:00.223Z,89.19
2023-03-15T05:07:38.760Z,88.29
2023-03-15T05:10:16.538Z,88.70
2023-03-15T05:12:51.014Z,88.67
2023-03-15T05:15:28.558Z,88.00
2023-03-15T05:18:00.434Z,88.00
2023-03-15T05:20:43.670Z,88.50
2023-03-15T05:23:25.328Z,88.23
2023-03-15T05:25:58.073Z,87.90
2023-03-15T05:28:45.614Z,87.53
2023-03-15T05:31:19.757Z,89.54
2023-03-15T05:33:57.425Z,89.69
2023-03-15T05:36:41.865Z,88.79
2023-03-15T05:39:15.383Z,88.06
2023-03-15T05:41:53.060Z,88.31
2023-03-15T05:44:42.680Z,88.22
2023-03-15T05:47:14.157Z,87.83
2023-03-15T05:49:54.223Z,87.74
2023-03-15T05:52:26.408Z,87.72
2023-03-15T05:55:00.378Z,87.42
2023-03-15T05:57:43.908Z,88.05
2023-03-15T06:00:18.664Z,87.49
2023-03-15T06:02:50.334Z,87.22
2023-03-15T06:05:24.466Z,87.58
2023-03-15T06:07:54.370Z,87.02
2023-03-15T06:10:24.335Z,87.08
2023-03-15T06:12:55.393Z,86.85
2023-03-15T06:15:25.252Z,87.29
2023-03-15T06:17:55.426Z,86.48
2023-03-15T06:20:26.789Z,86.48
2023-03-15T06:22:57.243Z,86.69
2023-03-15T06:25:29.035Z,86.86
2023-03-15T06:27:59.204Z,87.02
2023-03-15T06:30:29.640Z,87.35
2023-03-15T06:33:01.222Z,86.93
2023-03-15T06:35:33.016Z,86.92
2023-03-15T06:38:02.918Z,86.87
2023-03-15T06:40:34.718Z,87.39
2023-03-15T06:43:06.225Z,86.54
2023-03-15T06:45:36.808Z,86.88
2023-03-15T06:48:07.044Z,86.88
2023-03-15T06:50:46.976Z,87.74
2023-03-15T06:53:09.051Z,87.62
2023-03-15T06:55:38.853Z,87.18
2023-03-15T06:58:08.707Z,88.57
2023-03-15T07:00:38.916Z,88.36
2023-03-15T07:03:08.822Z,88.20
2023-03-15T07:05:39.029Z,88.06
2023-03-15T07:08:08.972Z,87.71
2023-03-15T07:10:38.829Z,87.71
2023-03-15T07:13:09.758Z,88.09
2023-03-15T07:15:40.072Z,88.40
2023-03-15T07:18:10.071Z,88.45
2023-03-15T07:20:39.907Z,88.98
2023-03-15T07:23:09.723Z,89.12
2023-03-15T07:25:54.053Z,88.83
2023-03-15T07:28:11.100Z,88.03
2023-03-15T07:30:40.853Z,87.58
2023-03-15T07:33:10.670Z,87.14
2023-03-15T07:35:41.334Z,87.87
2023-03-15T07:38:11.839Z,87.11
2023-03-15T07:40:41.579Z,86.87
2023-03-15T07:43:11.350Z,86.12
2023-03-15T07:45:41.122Z,85.40
2023-03-15T07:48:11.252Z,84.67
2023-03-15T07:50:42.931Z,84.00
2023-03-15T07:53:12.578Z,84.34
2023-03-15T07:55:42.398Z,82.87
2023-03-15T07:58:11.906Z,83.34
2023-03-15T08:00:41.844Z,83.21
2023-03-15T08:03:12.169Z,83.27
2023-03-15T08:05:42.073Z,83.18
2023-03-15T08:08:11.962Z,82.79
2023-03-15T08:10:43.109Z,82.00
2023-03-15T08:13:13.459Z,82.09
2023-03-15T08:15:44.787Z,80.68
2023-03-15T08:18:14.917Z,81.08
2023-03-15T08:20:44.684Z,80.36
2023-03-15T08:23:16.339Z,79.31
2023-03-15T08:25:46.561Z,79.96
2023-03-15T08:28:16.888Z,78.58
2023-03-15T08:30:46.697Z,76.83
2023-03-15T08:33:16.508Z,76.62
2023-03-15T08:35:46.454Z,76.04
2023-03-15T08:38:17.028Z,73.58
2023-03-15T08:40:47.069Z,74.92
2023-03-15T08:43:16.931Z,74.23
2023-03-15T08:46:00.279Z,74.92
2023-03-15T08:48:18.570Z,75.16
2023-03-15T08:50:48.684Z,75.38
2023-03-15T08:53:18.508Z,76.53
2023-03-15T08:55:49.787Z,73.82
2023-03-15T08:58:19.396Z,75.20
2023-03-15T09:00:51.539Z,74.00
2023-03-15T09:03:22.500Z,72.30
2023-03-15T09:05:54.079Z,70.52
2023-03-15T09:08:25.222Z,71.57
2023-03-15T09:10:57.072Z,71.72
2023-03-15T09:13:27.408Z,71.69
2023-03-15T09:15:58.427Z,72.31
2023-03-15T09:18:28.486Z,71.24
2023-03-15T09:20:58.346Z,69.38
2023-03-15T09:23:28.179Z,69.17
2023-03-15T09:25:57.990Z,64.56
2023-03-15T09:28:27.928Z,67.37
2023-03-15T09:30:59.575Z,67.87
2023-03-15T09:33:29.250Z,67.70
2023-03-15T09:35:59.852Z,67.74
2023-03-15T09:38:29.586Z,62.92
2023-03-15T09:41:00.339Z,64.24
2023-03-15T09:43:54.091Z,61.15
2023-03-15T09:46:29.728Z,60.33
2023-03-15T09:49:17.182Z,62.30
2023-03-15T09:51:55.755Z,60.18
2023-03-15T09:54:34.452Z,57.07
2023-03-15T09:57:08.927Z,57.07
2023-03-15T09:59:43.025Z,58.65
2023-03-15T10:02:24.341Z,58.65
2023-03-15T10:04:57.274Z,56.33
2023-03-15T10:07:27.663Z,55.60
2023-03-15T10:09:59.031Z,55.60
2023-03-15T10:12:36.074Z,56.69
2023-03-15T10:15:26.512Z,56.88
2023-03-15T10:18:26.208Z,55.21
2023-03-15T10:21:01.695Z,53.50
2023-03-15T10:23:51.964Z,52.93
2023-03-15T10:26:27.255Z,53.31
2023-03-15T10:28:57.132Z,51.79
2023-03-15T10:31:41.291Z,53.07
2023-03-15T10:34:02.527Z,53.16
2023-03-15T10:36:32.098Z,49.50
2023-03-15T10:39:02.965Z,51.59
2023-03-15T10:41:47.235Z,49.26
2023-03-15T10:44:19.794Z,51.08
2023-03-15T10:47:22.511Z,54.39
2023-03-15T10:49:43.995Z,51.32
2023-03-15T10:52:35.923Z,53.42
2023-03-15T10:55:16.603Z,49.47
2023-03-15T10:57:55.329Z,51.62
2023-03-15T11:00:31.006Z,51.97
2023-03-15T11:03:18.659Z,48.87
2023-03-15T11:05:51.656Z,49.74
2023-03-15T11:08:24.216Z,48.43
2023-03-15T11:11:01.123Z,49.49
2023-03-15T11:13:39.081Z,48.08
2023-03-15T11:16:17.623Z,44.64
2023-03-15T11:18:58.866Z,45.12
2023-03-15T11:21:33.167Z,47.51
2023-03-15T11:24:05.624Z,49.00
2023-03-15T11:26:40.717Z,43.80
2023-03-15T11:29:19.095Z,46.32
2023-03-15T11:31:50.171Z,45.70
2023-03-15T11:34:34.760Z,45.86
2023-03-15T11:37:09.386Z,43.70
2023-03-15T11:39:43.530Z,41.73
2023-03-15T11:42:16.993Z,41.46
2023-03-15T11:44:51.957Z,42.36
2023-03-15T11:47:39.605Z,42.86
2023-03-15T11:50:11.200Z,39.50
2023-03-15T11:52:41.322Z,39.83
2023-03-15T11:55:22.514Z,40.56
2023-03-15T11:57:53.294Z,41.10
2023-03-15T12:00:34.781Z,41.47
2023-03-15T12:03:33.887Z,42.42
2023-03-15T12:06:18.641Z,42.42
2023-03-15T12:08:51.438Z,40.53
2023-03-15T12:11:26.879Z,42.64
2023-03-15T12:14:02.125Z,40.46
2023-03-15T12:16:34.868Z,40.92
2023-03-15T12:21:54.343Z,41.27
2023-03-15T12:24:29.604Z,41.97
2023-03-15T12:27:08.437Z,40.85
2023-03-15T12:29:38.770Z,41.38
2023-03-15T12:32:11.461Z,41.49
2023-03-15T12:34:59.094Z,39.95
2023-03-15T12:37:40.701Z,40.10
2023-03-15T12:40:22.401Z,40.10
2023-03-15T12:42:58.056Z,40.44
2023-03-15T12:45:37.562Z,39.03
2023-03-15T12:48:12.917Z,39.70
2023-03-15T12:50:50.212Z,38.62
2023-03-15T12:53:25.484Z,38.21
2023-03-15T12:56:06.139Z,40.15
2023-03-15T12:58:33.501Z,40.22
2023-03-15T13:01:06.367Z,39.93
2023-03-15T13:03:37.098Z,39.02
2023-03-15T13:06:24.832Z,40.42
2023-03-15T13:09:06.552Z,40.40
2023-03-15T13:12:08.564Z,37.72
2023-03-15T13:14:44.576Z,38.23
2023-03-15T13:17:31.951Z,38.18
2023-03-15T13:20:37.239Z,37.46
2023-03-15T13:23:26.184Z,38.48
2023-03-15T13:26:15.192Z,36.73
2023-03-15T13:29:03.641Z,37.39
2023-03-15T13:31:34.596Z,36.73
2023-03-15T13:34:24.250Z,36.70
2023-03-15T13:37:01.381Z,37.11
2023-03-15T13:39:34.268Z,38.75
2023-03-15T13:42:09.689Z,37.02
2023-03-15T13:44:39.167Z,34.88
2023-03-15T13:47:08.994Z,33.18
2023-03-15T13:49:38.843Z,35.86
2023-03-15T13:52:12.701Z,34.80
2023-03-15T13:54:44.326Z,36.19
2023-03-15T13:57:17.472Z,36.57
2023-03-15T13:59:55.923Z,35.40
2023-03-15T14:02:28.828Z,36.38
2023-03-15T14:05:01.647Z,35.84
2023-03-15T14:07:44.950Z,36.96
2023-03-15T14:10:28.190Z,37.84
2023-03-15T14:13:00.170Z,35.23
2023-03-15T14:15:39.279Z,35.79
2023-03-15T14:18:12.922Z,35.67
2023-03-15T14:20:44.808Z,36.41
2023-03-15T14:23:17.477Z,36.27
2023-03-15T14:25:53.154Z,35.51
2023-03-15T14:28:24.747Z,34.29
2023-03-15T14:30:57.118Z,34.08
2023-03-15T14:33:33.115Z,34.22
2023-03-15T14:36:07.233Z,34.86
2023-03-15T14:38:40.118Z,35.62
2023-03-15T14:41:15.560Z,35.04
2023-03-15T14:43:45.108Z,35.74
2023-03-15T14:46:14.801Z,36.27
2023-03-15T14:48:44.890Z,35.53
2023-03-15T14:51:19.880Z,34.77
2023-03-15T14:53:53.306Z,35.51
2023-03-15T14:56:23.515Z,35.44
2023-03-15T14:58:55.430Z,34.87
2023-03-15T15:01:28.102Z,34.87
2023-03-15T15:04:03.320Z,35.74
2023-03-15T15:06:33.254Z,36.49
2023-03-15T15:09:06.344Z,37.13
2023-03-15T15:11:36.183Z,37.09
2023-03-15T15:14:12.282Z,37.98
2023-03-15T15:16:43.077Z,37.78
2023-03-15T15:19:12.984Z,37.15
2023-03-15T15:21:44.539Z,37.46
2023-03-15T15:24:19.904Z,36.62
2023-03-15T15:26:49.735Z,35.37
2023-03-15T15:29:19.539Z,36.27
2023-03-15T15:31:49.338Z,36.42
2023-03-15T15:34:19.035Z,36.42
2023-03-15T15:36:48.885Z,36.88
2023-03-15T15:39:24.018Z,37.42
2023-03-15T15:41:54.503Z,37.56
2023-03-15T15:44:28.104Z,37.30
2023-03-15T15:46:57.863Z,37.78
2023-03-15T15:49:27.623Z,37.02
2023-03-15T15:51:57.466Z,36.63
2023-03-15T15:54:30.527Z,36.37
2023-03-15T15:57:02.336Z,36.98
2023-03-15T15:59:32.149Z,36.67
2023-03-15T16:02:02.583Z,36.67
2023-03-15T16:04:32.956Z,36.72
2023-03-15T16:07:04.118Z,36.66
2023-03-15T16:09:40.009Z,37.55
2023-03-15T16:12:17.826Z,37.32
2023-03-15T16:14:47.655Z,38.08
2023-03-15T16:17:22.801Z,37.72
2023-03-15T16:19:54.169Z,39.21
2023-03-15T16:22:26.381Z,38.59
2023-03-15T16:25:00.380Z,38.14
2023-03-15T16:27:30.705Z,39.75
2023-03-15T16:30:02.410Z,38.00
2023-03-15T16:32:44.045Z,38.08
2023-03-15T16:35:07.952Z,38.11
2023-03-15T16:37:37.506Z,38.36
2023-03-15T16:40:12.444Z,37.79
2023-03-15T16:42:42.199Z,38.05
2023-03-15T16:45:15.973Z,38.98
2023-03-15T16:47:45.990Z,38.78
2023-03-15T16:50:17.107Z,38.89
2023-03-15T16:52:49.805Z,40.56
2023-03-15T16:55:25.740Z,39.48
2023-03-15T16:57:55.692Z,39.75
2023-03-15T17:00:25.468Z,40.55
2023-03-15T17:02:57.053Z,39.77
2023-03-15T17:05:27.420Z,40.99
2023-03-15T17:07:57.169Z,40.36
2023-03-15T17:10:32.743Z,42.08
2023-03-15T17:13:03.954Z,41.38
2023-03-15T17:15:33.799Z,41.54
2023-03-15T17:18:04.683Z,41.66
2023-03-15T17:20:34.431Z,42.71
2023-03-15T17:23:05.901Z,42.16
2023-03-15T17:25:35.919Z,44.04
2023-03-15T17:28:07.210Z,42.54
2023-03-15T17:30:38.614Z,43.01
2023-03-15T17:33:09.022Z,45.01
2023-03-15T17:35:44.661Z,44.30
2023-03-15T17:38:19.691Z,44.62
2023-03-15T17:40:50.086Z,45.22
2023-03-15T17:43:20.245Z,45.29
2023-03-15T17:45:50.056Z,45.25
2023-03-15T17:48:19.609Z,45.49
2023-03-15T17:50:49.438Z,46.31
2023-03-15T17:53:21.008Z,46.61
2023-03-15T17:55:52.368Z,47.45
2023-03-15T17:58:23.791Z,47.45
2023-03-15T18:00:57.076Z,47.31
2023-03-15T18:03:27.651Z,48.92
2023-03-15T18:05:59.355Z,47.79
2023-03-15T18:08:28.919Z,48.32
2023-03-15T18:10:59.821Z,48.08
2023-03-15T18:13:29.888Z,48.10
2023-03-15T18:15:59.988Z,48.77
2023-03-15T18:18:29.725Z,48.22
2023-03-15T18:20:59.465Z,48.66
2023-03-15T18:23:29.502Z,48.07
2023-03-15T18:25:59.252Z,48.40
2023-03-15T18:28:29.006Z,48.00
2023-03-15T18:30:58.731Z,48.19
2023-03-15T18:33:30.264Z,48.39
2023-03-15T18:35:59.829Z,48.50
2023-03-15T18:38:30.024Z,48.95
2023-03-15T18:40:59.962Z,49.44
2023-03-15T18:43:29.833Z,49.54
2023-03-15T18:45:59.946Z,50.07
2023-03-15T18:48:40.045Z,49.77
2023-03-15T18:51:01.770Z,49.97
2023-03-15T18:53:31.842Z,49.97
2023-03-15T18:56:01.746Z,50.51
2023-03-15T18:58:32.278Z,50.23
2023-03-15T19:01:02.355Z,50.22
2023-03-15T19:03:32.249Z,50.28
2023-03-15T19:06:07.495Z,50.74
2023-03-15T19:08:37.577Z,50.61
2023-03-15T19:11:08.448Z,50.78
2023-03-15T19:13:39.014Z,51.48
2023-03-15T19:16:10.921Z,51.48
2023-03-15T19:18:42.667Z,51.92
2023-03-15T19:21:12.587Z,51.92
2023-03-15T19:23:42.416Z,51.94
2023-03-15T19:26:13.679Z,52.21
2023-03-15T19:28:43.661Z,52.21
2023-03-15T19:31:13.474Z,52.46
2023-03-15T19:33:43.345Z,52.51
2023-03-15T19:36:13.256Z,53.01
2023-03-15T19:38:43.759Z,52.79
2023-03-15T19:41:13.541Z,53.53
2023-03-15T19:43:43.610Z,53.36
2023-03-15T19:46:14.857Z,53.15
2023-03-15T19:48:44.742Z,53.75
2023-03-15T19:51:16.068Z,54.11
2023-03-15T19:53:46.100Z,54.15
2023-03-15T19:56:15.714Z,54.30
2023-03-15T19:58:45.502Z,54.27
2023-03-15T20:01:16.063Z,54.37
2023-03-15T20:03:45.834Z,54.48
2023-03-15T20:06:15.352Z,54.42
2023-03-15T20:08:45.201Z,54.76
2023-03-15T20:11:16.583Z,54.93
2023-03-15T20:13:46.760Z,54.85
2023-03-15T20:16:16.649Z,55.22
2023-03-15T20:18:47.450Z,55.49
2023-03-15T20:21:17.695Z,55.33
2023-03-15T20:23:48.045Z,55.52
2023-03-15T20:26:20.708Z,55.57
2023-03-15T20:28:50.629Z,56.05
2023-03-15T20:31:21.653Z,55.49
2023-03-15T20:33:52.086Z,55.43
2023-03-15T20:36:22.322Z,55.30
2023-03-15T20:38:52.115Z,55.45
2023-03-15T20:41:21.998Z,55.31
2023-03-15T20:43:52.133Z,55.45
2023-03-15T20:46:22.504Z,55.60
2023-03-15T20:48:55.234Z,56.10
2023-03-15T20:51:25.393Z,56.39
2023-03-15T20:53:55.242Z,56.39
2023-03-15T20:56:25.343Z,56.44
2023-03-15T20:58:55.478Z,56.48
2023-03-15T21:01:25.290Z,57.00
2023-03-15T21:03:56.321Z,56.83
2023-03-15T21:06:26.360Z,56.67
2023-03-15T21:08:56.176Z,56.73
2023-03-15T21:11:26.039Z,56.64
2023-03-15T21:13:56.681Z,56.92
2023-03-15T21:16:26.696Z,56.53
2023-03-15T21:18:56.804Z,56.63
2023-03-15T21:21:26.650Z,56.44
2023-03-15T21:23:56.846Z,56.28
2023-03-15T21:26:26.388Z,56.70
2023-03-15T21:28:56.296Z,56.46
2023-03-15T21:31:26.169Z,57.02
2023-03-15T21:33:55.981Z,57.02
2023-03-15T21:36:25.530Z,57.02
2023-03-15T21:38:55.314Z,57.02
2023-03-15T21:41:25.047Z,57.35
2023-03-15T21:43:54.935Z,57.45
2023-03-15T21:46:24.706Z,57.43
2023-03-15T21:48:54.494Z,57.25
2023-03-15T21:51:24.348Z,57.14
2023-03-15T21:53:54.062Z,57.65
2023-03-15T21:56:26.066Z,57.73
2023-03-15T21:58:56.330Z,57.77
2023-03-15T22:01:26.374Z,57.68
2023-03-15T22:03:56.183Z,57.92
2023-03-15T22:06:25.726Z,58.05
2023-03-15T22:08:55.380Z,57.90
2023-03-15T22:11:25.198Z,58.48
2023-03-15T22:13:54.948Z,58.46
2023-03-15T22:16:24.431Z,58.46
2023-03-15T22:18:54.502Z,58.82
2023-03-15T22:21:24.552Z,58.52
2023-03-15T22:23:54.363Z,58.71
2023-03-15T22:26:24.285Z,59.01
2023-03-15T22:28:54.010Z,59.38
2023-03-15T22:31:23.864Z,59.68
2023-03-15T22:33:53.720Z,59.29
2023-03-15T22:36:23.190Z,60.31
2023-03-15T22:38:53.110Z,59.94
2023-03-15T22:41:23.938Z,60.20
2023-03-15T22:43:54.772Z,60.48
2023-03-15T22:46:24.277Z,60.64
2023-03-15T22:48:54.652Z,61.05
2023-03-15T22:51:24.419Z,61.03
2023-03-15T22:53:54.325Z,61.26
2023-03-15T22:56:24.016Z,62.33
2023-03-15T22:58:55.460Z,62.44
2023-03-15T23:01:25.486Z,62.44
2023-03-15T23:03:55.254Z,62.11
2023-03-15T23:06:25.372Z,62.53
2023-03-15T23:08:55.140Z,62.41
2023-03-15T23:11:24.909Z,62.54
2023-03-15T23:13:54.744Z,62.77
2023-03-15T23:16:24.559Z,62.34
2023-03-15T23:18:54.893Z,62.79
2023-03-15T23:21:24.717Z,62.64
2023-03-15T23:23:54.580Z,63.23
2023-03-15T23:26:25.415Z,63.22
2023-03-15T23:28:55.951Z,62.88
2023-03-15T23:31:25.901Z,63.32
2023-03-15T23:33:55.979Z,63.51
2023-03-15T23:36:25.753Z,63.61
2023-03-15T23:38:55.288Z,63.73
2023-03-15T23:41:25.056Z,63.81
2023-03-15T23:43:54.877Z,63.60
2023-03-15T23:46:24.706Z,63.85
2023-03-15T23:48:54.440Z,63.65
2023-03-15T23:51:24.223Z,63.45
2023-03-15T23:53:54.025Z,63.24
2023-03-15T23:56:24.150Z,63.24
2023-03-15T23:58:53.899Z,64.40
